createdAt,value
2022-12-31T00:00:03.363Z,1.04
2022-12-31T00:01:03.529Z,1.04
2022-12-31T00:02:03.736Z,1.04
2022-12-31T00:03:04.021Z,1.04
2022-12-31T00:04:03.938Z,1.04
2022-12-31T00:05:04.062Z,1.04
2022-12-31T00:06:04.230Z,1.04
2022-12-31T00:07:04.374Z,1.04
2022-12-31T00:08:05.708Z,1.04
2022-12-31T00:09:04.665Z,1.04
2022-12-31T00:10:04.826Z,1.04
2022-12-31T00:11:04.969Z,1.04
2022-12-31T00:12:05.134Z,1.04
2022-12-31T00:13:05.279Z,1.04
2022-12-31T00:14:05.429Z,1.04
2022-12-31T00:15:05.582Z,1.04
2022-12-31T00:16:11.720Z,1.04
2022-12-31T00:17:05.878Z,1.04
2022-12-31T00:18:05.998Z,1.04
2022-12-31T00:19:06.142Z,1.04
2022-12-31T00:20:06.312Z,1.04
2022-12-31T00:21:06.462Z,1.04
2022-12-31T00:22:06.604Z,1.04
2022-12-31T00:23:06.752Z,1.04
2022-12-31T00:24:06.899Z,1.04
2022-12-31T00:25:07.064Z,1.04
2022-12-31T00:26:07.160Z,1.04
2022-12-31T00:27:07.309Z,1.04
2022-12-31T00:28:07.462Z,1.04
2022-12-31T00:29:07.615Z,1.04
2022-12-31T00:30:07.761Z,1.04
2022-12-31T00:31:07.933Z,1.04
2022-12-31T00:32:08.069Z,1.04
2022-12-31T00:33:08.211Z,1.04
2022-12-31T00:34:08.354Z,1.04
2022-12-31T00:35:08.535Z,1.04
2022-12-31T00:36:08.683Z,1.04
2022-12-31T00:37:08.832Z,1.04
2022-12-31T00:38:08.964Z,1.04
2022-12-31T00:39:09.130Z,1.04
2022-12-31T00:40:09.267Z,1.04
2022-12-31T00:41:09.432Z,1.04
2022-12-31T00:42:09.563Z,1.04
2022-12-31T00:43:09.712Z,1.04
2022-12-31T00:44:09.831Z,1.04
2022-12-31T00:45:09.976Z,1.04
2022-12-31T00:46:10.178Z,1.04
2022-12-31T00:47:11.353Z,1.04
2022-12-31T00:48:10.433Z,1.04
2022-12-31T00:49:10.595Z,1.04
2022-12-31T00:50:10.732Z,1.04
2022-12-31T00:51:10.892Z,1.04
2022-12-31T00:52:11.040Z,1.04
2022-12-31T00:53:11.191Z,1.04
2022-12-31T00:54:11.276Z,1.04
2022-12-31T00:55:11.449Z,1.04
2022-12-31T00:56:11.593Z,1.04
2022-12-31T00:57:11.740Z,1.04
2022-12-31T00:58:11.903Z,1.04
2022-12-31T00:59:12.063Z,1.04
2022-12-31T01:00:12.200Z,1.04
2022-12-31T01:01:12.524Z,1.04
2022-12-31T01:02:12.625Z,1.04
2022-12-31T01:03:12.595Z,1.04
2022-12-31T01:04:12.683Z,1.04
2022-12-31T01:05:12.796Z,1.04
2022-12-31T01:06:12.954Z,1.04
2022-12-31T01:07:13.105Z,1.04
2022-12-31T01:08:13.268Z,1.04
2022-12-31T01:09:13.417Z,1.04
2022-12-31T01:10:13.562Z,1.04
2022-12-31T01:11:13.708Z,1.04
2022-12-31T01:12:13.863Z,1.04
2022-12-31T01:13:13.965Z,1.04
2022-12-31T01:14:14.146Z,1.04
2022-12-31T01:15:14.272Z,1.04
2022-12-31T01:16:14.433Z,1.04
2022-12-31T01:17:14.523Z,1.04
2022-12-31T01:18:14.672Z,1.04
2022-12-31T01:19:14.820Z,1.04
2022-12-31T01:20:14.989Z,1.04
2022-12-31T01:21:15.124Z,1.04
2022-12-31T01:22:15.279Z,1.04
2022-12-31T01:23:15.425Z,1.04
2022-12-31T01:24:15.619Z,1.04
2022-12-31T01:25:15.739Z,1.04
2022-12-31T01:26:15.837Z,1.04
2022-12-31T01:27:15.991Z,1.04
2022-12-31T01:28:16.145Z,1.04
2022-12-31T01:29:16.262Z,1.04
2022-12-31T01:30:16.391Z,1.04
2022-12-31T01:31:16.549Z,1.04
2022-12-31T01:32:16.606Z,1.04
2022-12-31T01:33:16.746Z,1.04
2022-12-31T01:34:16.921Z,1.04
2022-12-31T01:35:17.050Z,1.04
2022-12-31T01:36:21.825Z,1.04
2022-12-31T01:37:17.357Z,1.04
2022-12-31T01:38:17.497Z,1.04
2022-12-31T01:39:17.661Z,1.04
2022-12-31T01:40:17.789Z,1.04
2022-12-31T01:41:17.919Z,1.04
2022-12-31T01:42:18.073Z,1.04
2022-12-31T01:43:18.209Z,1.04
2022-12-31T01:44:18.385Z,1.04
2022-12-31T01:45:18.552Z,1.04
2022-12-31T01:46:18.688Z,1.04
2022-12-31T01:47:18.750Z,1.04
2022-12-31T01:48:18.911Z,1.04
2022-12-31T01:49:19.058Z,1.04
2022-12-31T01:50:19.223Z,1.04
2022-12-31T01:51:19.379Z,1.04
2022-12-31T01:52:19.552Z,1.04
2022-12-31T01:53:19.669Z,1.04
2022-12-31T01:54:19.824Z,1.04
2022-12-31T01:55:20.024Z,1.04
2022-12-31T01:56:20.148Z,1.04
2022-12-31T01:57:20.299Z,1.04
2022-12-31T01:58:20.454Z,1.04
2022-12-31T01:59:20.589Z,1.04
2022-12-31T02:00:20.759Z,1.04
2022-12-31T02:01:20.961Z,1.04
2022-12-31T02:02:21.109Z,1.04
2022-12-31T02:03:21.173Z,1.04
2022-12-31T02:04:21.296Z,1.04
2022-12-31T02:05:21.391Z,1.04
2022-12-31T02:06:21.556Z,1.04
2022-12-31T02:07:21.709Z,1.04
2022-12-31T02:08:21.858Z,1.04
2022-12-31T02:09:22.001Z,1.04
2022-12-31T02:10:22.163Z,1.04
2022-12-31T02:11:22.309Z,1.04
2022-12-31T02:12:22.499Z,1.04
2022-12-31T02:13:22.605Z,1.04
2022-12-31T02:14:22.777Z,1.04
2022-12-31T02:15:23.025Z,1.04
2022-12-31T02:16:23.221Z,1.04
2022-12-31T02:17:23.305Z,1.04
2022-12-31T02:18:23.474Z,1.04
2022-12-31T02:19:23.611Z,1.04
2022-12-31T02:20:23.765Z,1.04
2022-12-31T02:21:23.905Z,1.04
2022-12-31T02:22:24.076Z,1.04
2022-12-31T02:23:24.221Z,1.04
2022-12-31T02:24:24.393Z,1.04
2022-12-31T02:25:24.519Z,1.04
2022-12-31T02:26:24.678Z,1.04
2022-12-31T02:27:24.830Z,1.04
2022-12-31T02:28:24.983Z,1.04
2022-12-31T02:29:25.135Z,1.04
2022-12-31T02:30:25.270Z,1.04
2022-12-31T02:31:25.508Z,1.04
2022-12-31T02:32:25.579Z,1.04
2022-12-31T02:33:25.743Z,1.04
2022-12-31T02:34:25.915Z,1.04
2022-12-31T02:35:26.045Z,1.04
2022-12-31T02:36:26.201Z,1.04
2022-12-31T02:37:26.339Z,1.04
2022-12-31T02:38:26.514Z,1.04
2022-12-31T02:39:26.638Z,1.04
2022-12-31T02:40:26.802Z,1.04
2022-12-31T02:41:26.955Z,1.04
2022-12-31T02:42:27.111Z,1.04
2022-12-31T02:43:27.273Z,1.04
2022-12-31T02:44:27.422Z,1.04
2022-12-31T02:45:27.520Z,1.04
2022-12-31T02:46:27.743Z,1.04
2022-12-31T02:47:27.873Z,1.04
2022-12-31T02:48:28.034Z,1.04
2022-12-31T02:49:28.163Z,1.04
2022-12-31T02:50:28.310Z,1.04
2022-12-31T02:51:28.462Z,1.04
2022-12-31T02:52:28.631Z,1.04
2022-12-31T02:53:28.713Z,1.04
2022-12-31T02:54:28.868Z,1.04
2022-12-31T02:55:29.020Z,1.04
2022-12-31T02:56:29.124Z,1.04
2022-12-31T02:57:29.275Z,1.04
2022-12-31T02:58:29.425Z,1.04
2022-12-31T02:59:29.567Z,1.04
2022-12-31T03:00:29.719Z,1.04
2022-12-31T03:01:29.996Z,1.04
2022-12-31T03:02:30.138Z,1.04
2022-12-31T03:03:30.147Z,1.04
2022-12-31T03:04:30.290Z,1.04
2022-12-31T03:05:30.445Z,1.04
2022-12-31T03:06:30.588Z,1.04
2022-12-31T03:07:30.692Z,1.04
2022-12-31T03:08:30.845Z,1.04
2022-12-31T03:09:30.988Z,1.04
2022-12-31T03:10:31.103Z,1.04
2022-12-31T03:11:31.250Z,1.04
2022-12-31T03:12:31.417Z,1.04
2022-12-31T03:13:31.554Z,1.04
2022-12-31T03:14:31.707Z,1.04
2022-12-31T03:15:31.854Z,1.04
2022-12-31T03:16:32.007Z,1.04
2022-12-31T03:17:32.095Z,1.04
2022-12-31T03:18:32.253Z,1.04
2022-12-31T03:19:32.413Z,1.04
2022-12-31T03:20:32.555Z,1.04
2022-12-31T03:21:32.670Z,1.04
2022-12-31T03:22:32.770Z,1.04
2022-12-31T03:23:32.913Z,1.04
2022-12-31T03:24:33.076Z,1.04
2022-12-31T03:25:33.255Z,1.04
2022-12-31T03:26:33.380Z,1.04
2022-12-31T03:27:33.515Z,1.04
2022-12-31T03:28:33.665Z,1.04
2022-12-31T03:29:33.817Z,1.04
2022-12-31T03:30:33.973Z,1.04
2022-12-31T03:31:34.145Z,1.04
2022-12-31T03:32:34.212Z,1.04
2022-12-31T03:33:34.375Z,1.04
2022-12-31T03:34:34.537Z,1.04
2022-12-31T03:35:34.687Z,1.04
2022-12-31T03:36:34.846Z,1.04
2022-12-31T03:37:34.989Z,1.04
2022-12-31T03:38:35.133Z,1.04
2022-12-31T03:39:35.296Z,1.04
2022-12-31T03:40:35.434Z,1.04
2022-12-31T03:41:35.554Z,1.04
2022-12-31T03:42:35.702Z,1.04
2022-12-31T03:43:35.832Z,1.04
2022-12-31T03:44:35.930Z,1.04
2022-12-31T03:45:36.196Z,1.04
2022-12-31T03:46:36.248Z,1.04
2022-12-31T03:47:36.402Z,1.04
2022-12-31T03:48:36.497Z,1.04
2022-12-31T03:49:36.658Z,1.04
2022-12-31T03:50:36.810Z,1.04
2022-12-31T03:51:36.965Z,1.04
2022-12-31T03:52:37.110Z,1.04
2022-12-31T03:53:37.263Z,1.04
2022-12-31T03:54:37.408Z,1.04
2022-12-31T03:55:37.566Z,1.04
2022-12-31T03:56:37.670Z,1.04
2022-12-31T03:57:37.813Z,1.04
2022-12-31T03:58:38.280Z,1.04
2022-12-31T03:59:38.111Z,1.04
2022-12-31T04:00:38.858Z,1.04
2022-12-31T04:01:38.831Z,1.04
2022-12-31T04:02:38.976Z,1.04
2022-12-31T04:03:38.635Z,1.04
2022-12-31T04:04:38.770Z,1.04
2022-12-31T04:05:38.952Z,1.04
2022-12-31T04:06:39.071Z,1.04
2022-12-31T04:07:39.223Z,1.04
2022-12-31T04:08:39.394Z,1.04
2022-12-31T04:09:39.536Z,1.04
2022-12-31T04:10:39.679Z,1.04
2022-12-31T04:11:39.827Z,1.04
2022-12-31T04:12:39.997Z,1.04
2022-12-31T04:13:40.143Z,1.04
2022-12-31T04:14:40.296Z,1.04
2022-12-31T04:15:40.430Z,1.04
2022-12-31T04:16:40.643Z,1.04
2022-12-31T04:17:40.739Z,1.04
2022-12-31T04:18:40.914Z,1.04
2022-12-31T04:19:41.016Z,1.04
2022-12-31T04:20:41.161Z,1.04
2022-12-31T04:21:41.303Z,1.04
2022-12-31T04:22:41.475Z,1.04
2022-12-31T04:23:41.607Z,1.04
2022-12-31T04:24:41.767Z,1.04
2022-12-31T04:25:41.898Z,1.04
2022-12-31T04:26:42.075Z,1.04
2022-12-31T04:27:42.205Z,1.04
2022-12-31T04:28:42.352Z,1.04
2022-12-31T04:29:42.532Z,1.04
2022-12-31T04:30:42.658Z,1.04
2022-12-31T04:31:42.810Z,1.04
2022-12-31T04:32:42.914Z,1.04
2022-12-31T04:33:43.041Z,1.04
2022-12-31T04:34:43.165Z,1.04
2022-12-31T04:35:43.305Z,1.04
2022-12-31T04:36:43.563Z,1.04
2022-12-31T04:37:43.636Z,1.04
2022-12-31T04:38:43.781Z,1.04
2022-12-31T04:39:43.889Z,1.04
2022-12-31T04:40:44.027Z,1.04
2022-12-31T04:41:44.227Z,1.04
2022-12-31T04:42:44.335Z,1.04
2022-12-31T04:43:44.463Z,1.04
2022-12-31T04:44:44.600Z,1.04
2022-12-31T04:45:44.773Z,1.04
2022-12-31T04:46:44.852Z,1.04
2022-12-31T04:47:45.015Z,1.04
2022-12-31T04:48:45.140Z,1.04
2022-12-31T04:49:45.291Z,1.04
2022-12-31T04:50:45.451Z,1.04
2022-12-31T04:51:45.590Z,1.04
2022-12-31T04:52:45.711Z,1.04
2022-12-31T04:53:45.857Z,1.04
2022-12-31T04:54:45.957Z,1.04
2022-12-31T04:55:46.128Z,1.04
2022-12-31T04:56:46.244Z,1.04
2022-12-31T04:57:46.407Z,1.04
2022-12-31T04:58:46.545Z,1.04
2022-12-31T04:59:46.675Z,1.04
2022-12-31T05:00:46.815Z,1.04
2022-12-31T05:01:47.065Z,1.04
2022-12-31T05:02:47.351Z,1.04
2022-12-31T05:03:47.275Z,1.04
2022-12-31T05:04:47.441Z,1.04
2022-12-31T05:05:47.563Z,1.04
2022-12-31T05:06:47.670Z,1.04
2022-12-31T05:07:47.821Z,1.04
2022-12-31T05:08:47.985Z,1.04
2022-12-31T05:09:48.141Z,1.04
2022-12-31T05:10:48.332Z,1.04
2022-12-31T05:11:48.478Z,1.04
2022-12-31T05:12:48.577Z,1.04
2022-12-31T05:13:48.732Z,1.04
2022-12-31T05:14:48.874Z,1.04
2022-12-31T05:15:49.030Z,1.04
2022-12-31T05:16:49.233Z,1.04
2022-12-31T05:17:49.337Z,1.04
2022-12-31T05:18:49.489Z,1.04
2022-12-31T05:19:49.630Z,1.04
2022-12-31T05:20:49.791Z,1.04
2022-12-31T05:21:49.947Z,1.04
2022-12-31T05:22:50.098Z,1.04
2022-12-31T05:23:50.240Z,1.04
2022-12-31T05:24:50.447Z,1.04
2022-12-31T05:25:50.544Z,1.04
2022-12-31T05:26:50.641Z,1.04
2022-12-31T05:27:50.792Z,1.04
2022-12-31T05:28:50.966Z,1.04
2022-12-31T05:29:51.093Z,1.04
2022-12-31T05:30:51.283Z,1.04
2022-12-31T05:31:51.353Z,1.04
2022-12-31T05:32:51.556Z,1.04
2022-12-31T05:33:51.595Z,1.04
2022-12-31T05:34:51.753Z,1.04
2022-12-31T05:35:51.909Z,1.04
2022-12-31T05:36:52.069Z,1.04
2022-12-31T05:37:52.533Z,1.04
2022-12-31T05:38:52.359Z,1.04
2022-12-31T05:39:52.465Z,1.04
2022-12-31T05:40:52.617Z,1.04
2022-12-31T05:41:52.721Z,1.04
2022-12-31T05:42:52.864Z,1.04
2022-12-31T05:43:53.026Z,1.04
2022-12-31T05:44:53.154Z,1.04
2022-12-31T05:45:53.284Z,1.04
2022-12-31T05:46:53.351Z,1.04
2022-12-31T05:47:53.502Z,1.04
2022-12-31T05:48:53.645Z,1.04
2022-12-31T05:49:53.845Z,1.04
2022-12-31T05:50:53.930Z,1.04
2022-12-31T05:51:54.083Z,1.04
2022-12-31T05:52:54.251Z,1.04
2022-12-31T05:53:54.385Z,1.04
2022-12-31T05:54:54.525Z,1.04
2022-12-31T05:55:54.697Z,1.04
2022-12-31T05:56:54.838Z,1.04
2022-12-31T05:57:54.986Z,1.04
2022-12-31T05:58:55.149Z,1.04
2022-12-31T05:59:55.307Z,1.04
2022-12-31T06:00:55.456Z,1.04
2022-12-31T06:01:55.531Z,1.04
2022-12-31T06:02:55.794Z,1.04
2022-12-31T06:03:55.860Z,1.04
2022-12-31T06:04:55.948Z,1.04
2022-12-31T06:05:56.049Z,1.04
2022-12-31T06:06:56.283Z,1.04
2022-12-31T06:07:56.350Z,1.04
2022-12-31T06:08:56.512Z,1.04
2022-12-31T06:09:56.661Z,1.04
2022-12-31T06:10:56.814Z,1.04
2022-12-31T06:11:56.973Z,1.04
2022-12-31T06:12:57.119Z,1.04
2022-12-31T06:13:57.269Z,1.04
2022-12-31T06:14:57.421Z,1.04
2022-12-31T06:15:57.592Z,1.04
2022-12-31T06:16:57.742Z,1.04
2022-12-31T06:17:57.867Z,1.04
2022-12-31T06:18:58.022Z,1.04
2022-12-31T06:19:58.171Z,1.04
2022-12-31T06:20:58.276Z,1.04
2022-12-31T06:21:58.437Z,1.04
2022-12-31T06:22:58.575Z,1.04
2022-12-31T06:23:58.773Z,1.04
2022-12-31T06:24:58.873Z,1.04
2022-12-31T06:25:59.034Z,2
2022-12-31T06:26:59.184Z,2
2022-12-31T06:27:59.337Z,2
2022-12-31T06:28:59.510Z,2
2022-12-31T06:29:59.640Z,2
2022-12-31T06:30:59.789Z,3.04
2022-12-31T06:31:59.877Z,3.04
2022-12-31T06:33:00.083Z,3.04
2022-12-31T06:34:00.151Z,4
2022-12-31T06:35:00.307Z,5.04
2022-12-31T06:36:00.435Z,5.04
2022-12-31T06:37:00.618Z,6
2022-12-31T06:38:00.763Z,6
2022-12-31T06:39:00.910Z,7.04
2022-12-31T06:40:01.072Z,9.04
2022-12-31T06:41:01.166Z,9.04
2022-12-31T06:42:01.308Z,10
2022-12-31T06:43:01.413Z,11.04
2022-12-31T06:44:01.558Z,12
2022-12-31T06:45:01.712Z,12
2022-12-31T06:46:01.866Z,13.04
2022-12-31T06:47:02.009Z,14
2022-12-31T06:48:02.121Z,14
2022-12-31T06:49:02.283Z,17.04
2022-12-31T06:50:02.424Z,22
2022-12-31T06:51:02.587Z,28
2022-12-31T06:52:02.721Z,39.04
2022-12-31T06:53:02.863Z,48
2022-12-31T06:54:03.020Z,59.04
2022-12-31T06:55:03.196Z,69.04
2022-12-31T06:56:03.347Z,79.04
2022-12-31T06:57:03.489Z,91.04
2022-12-31T06:58:03.631Z,121.04
2022-12-31T06:59:03.790Z,138
2022-12-31T07:00:03.942Z,158
2022-12-31T07:01:04.135Z,172
2022-12-31T07:02:04.293Z,187.04
2022-12-31T07:03:04.361Z,204
2022-12-31T07:04:04.488Z,216
2022-12-31T07:05:04.584Z,225.12
2022-12-31T07:06:04.759Z,238.08
2022-12-31T07:07:04.893Z,250.08
2022-12-31T07:08:05.000Z,268
2022-12-31T07:09:05.154Z,284
2022-12-31T07:10:05.302Z,299.04
2022-12-31T07:11:05.471Z,322.08
2022-12-31T07:12:05.604Z,342.08
2022-12-31T07:13:05.773Z,364.16
2022-12-31T07:14:05.900Z,384
2022-12-31T07:15:06.072Z,407.04
2022-12-31T07:16:06.244Z,440
2022-12-31T07:17:06.299Z,470.08
2022-12-31T07:18:06.454Z,506.24
2022-12-31T07:19:06.616Z,551.04
2022-12-31T07:20:06.773Z,587.2
2022-12-31T07:21:06.868Z,616
2022-12-31T07:22:07.018Z,627.2
2022-12-31T07:23:07.170Z,605.12
2022-12-31T07:24:07.299Z,566.08
2022-12-31T07:25:07.415Z,586.24
2022-12-31T07:26:07.572Z,613.12
2022-12-31T07:27:07.730Z,630.08
2022-12-31T07:28:07.886Z,678.4
2022-12-31T07:29:08.024Z,714.24
2022-12-31T07:30:08.170Z,735.36
2022-12-31T07:31:08.334Z,813.44
2022-12-31T07:32:08.418Z,913.28
2022-12-31T07:33:08.536Z,1069.44
2022-12-31T07:34:08.674Z,1135.36
2022-12-31T07:35:08.843Z,1138.56
2022-12-31T07:36:09.015Z,1193.6
2022-12-31T07:37:09.156Z,1354.24
2022-12-31T07:38:09.291Z,1484.8
2022-12-31T07:39:09.428Z,1638.4
2022-12-31T07:40:09.595Z,1797.12
2022-12-31T07:41:10.324Z,2016
2022-12-31T07:42:09.898Z,2213.12
2022-12-31T07:43:10.050Z,2359.04
2022-12-31T07:44:10.200Z,2506.24
2022-12-31T07:45:10.349Z,2626.56
2022-12-31T07:46:10.557Z,2757.12
2022-12-31T07:47:10.638Z,2936.32
2022-12-31T07:48:10.805Z,3084.8
2022-12-31T07:49:10.960Z,3292.16
2022-12-31T07:50:11.117Z,3466.24
2022-12-31T07:51:11.269Z,3645.44
2022-12-31T07:52:11.412Z,3878.4
2022-12-31T07:53:11.560Z,4052.48
2022-12-31T07:54:14.051Z,4270.08
2022-12-31T07:55:11.876Z,4456.96
2022-12-31T07:56:11.992Z,4613.12
2022-12-31T07:57:12.114Z,4792.32
2022-12-31T07:58:12.225Z,4922.88
2022-12-31T07:59:12.374Z,4948.48
2022-12-31T08:00:12.523Z,4856.32
2022-12-31T08:01:12.823Z,4748.8
2022-12-31T08:02:12.872Z,4531.2
2022-12-31T08:03:12.912Z,4526.08
2022-12-31T08:04:13.033Z,4756.48
2022-12-31T08:05:13.178Z,4922.88
2022-12-31T08:06:13.337Z,4797.44
2022-12-31T08:07:13.483Z,4669.44
2022-12-31T08:08:13.625Z,4733.44
2022-12-31T08:09:13.779Z,4733.44
2022-12-31T08:10:17.649Z,4454.4
2022-12-31T08:11:14.103Z,3855.36
2022-12-31T08:12:14.238Z,3934.72
2022-12-31T08:13:14.343Z,3944.96
2022-12-31T08:14:14.511Z,3266.56
2022-12-31T08:15:14.625Z,3176.96
2022-12-31T08:16:14.902Z,3381.76
2022-12-31T08:17:14.920Z,3645.44
2022-12-31T08:18:15.057Z,3645.44
2022-12-31T08:19:15.233Z,3834.88
2022-12-31T08:20:15.405Z,4318.72
2022-12-31T08:21:15.554Z,4984.32
2022-12-31T08:22:15.723Z,4989.44
2022-12-31T08:23:15.813Z,5457.92
2022-12-31T08:24:15.968Z,5391.36
2022-12-31T08:25:16.107Z,4083.2
2022-12-31T08:26:16.273Z,3215.36
2022-12-31T08:27:16.367Z,3238.4
2022-12-31T08:28:16.520Z,3197.44
2022-12-31T08:29:16.664Z,3023.36
2022-12-31T08:30:16.824Z,2908.16
2022-12-31T08:31:17.007Z,2892.8
2022-12-31T08:32:17.076Z,2846.72
2022-12-31T08:33:17.228Z,2905.6
2022-12-31T08:34:17.368Z,3189.76
2022-12-31T08:35:17.535Z,3376.64
2022-12-31T08:36:17.673Z,3681.28
2022-12-31T08:37:17.808Z,3863.04
2022-12-31T08:38:18.016Z,4072.96
2022-12-31T08:39:18.124Z,4485.12
2022-12-31T08:40:18.264Z,5493.76
2022-12-31T08:41:18.435Z,6871.04
2022-12-31T08:42:18.538Z,7500.8
2022-12-31T08:43:18.626Z,8017.92
2022-12-31T08:44:18.781Z,8279.04
2022-12-31T08:45:18.874Z,8975.359
2022-12-31T08:46:19.039Z,10060.8
2022-12-31T08:47:19.180Z,9866.24
2022-12-31T08:48:19.288Z,9912.319
2022-12-31T08:49:19.434Z,8734.72
2022-12-31T08:50:19.604Z,9016.319
2022-12-31T08:51:19.762Z,9743.359
2022-12-31T08:52:19.886Z,11745.279
2022-12-31T08:53:20.640Z,12257.279
2022-12-31T08:54:20.154Z,12052.479
2022-12-31T08:55:20.287Z,11735.04
2022-12-31T08:56:20.397Z,11786.239
2022-12-31T08:57:20.539Z,11663.359
2022-12-31T08:58:20.713Z,11427.84
2022-12-31T08:59:20.857Z,11950.08
2022-12-31T09:00:20.997Z,12175.359
2022-12-31T09:01:21.170Z,12390.399
2022-12-31T09:02:21.267Z,12523.52
2022-12-31T09:03:21.402Z,12728.319
2022-12-31T09:04:21.567Z,12595.2
2022-12-31T09:05:21.671Z,12513.279
2022-12-31T09:06:21.763Z,12615.68
2022-12-31T09:07:21.914Z,12738.56
2022-12-31T09:08:22.066Z,14141.439
2022-12-31T09:09:22.222Z,14080
2022-12-31T09:10:22.392Z,13803.52
2022-12-31T09:11:23.367Z,14530.56
2022-12-31T09:12:22.570Z,15800.319
2022-12-31T09:13:22.694Z,15728.64
2022-12-31T09:14:22.816Z,16199.68
2022-12-31T09:15:22.979Z,14673.92
2022-12-31T09:16:23.120Z,15431.68
2022-12-31T09:17:23.293Z,14632.96
2022-12-31T09:18:25.921Z,15257.6
2022-12-31T09:19:23.581Z,15462.399
2022-12-31T09:20:23.764Z,15769.6
2022-12-31T09:21:23.901Z,15974.399
2022-12-31T09:22:24.008Z,15841.279
2022-12-31T09:23:24.157Z,15124.479
2022-12-31T09:24:24.302Z,15308.8
2022-12-31T09:25:24.451Z,16199.68
2022-12-31T09:26:24.611Z,17612.8
2022-12-31T09:27:27.705Z,17295.36
2022-12-31T09:28:24.900Z,16271.359
2022-12-31T09:29:25.062Z,16486.4
2022-12-31T09:30:25.219Z,15892.479
2022-12-31T09:31:25.372Z,15032.319
2022-12-31T09:32:25.449Z,14909.439
2022-12-31T09:33:25.614Z,14837.76
2022-12-31T09:34:25.758Z,14632.96
2022-12-31T09:35:25.921Z,14520.319
2022-12-31T09:36:26.054Z,13824
2022-12-31T09:37:26.219Z,14305.279
2022-12-31T09:38:26.401Z,12236.8
2022-12-31T09:39:26.517Z,13393.92
2022-12-31T09:40:26.689Z,14039.04
2022-12-31T09:41:26.839Z,13875.199
2022-12-31T09:42:26.966Z,13742.08
2022-12-31T09:43:27.063Z,12318.72
2022-12-31T09:44:27.240Z,11038.72
2022-12-31T09:45:27.417Z,11765.76
2022-12-31T09:46:27.540Z,12021.76
2022-12-31T09:47:27.683Z,11827.2
2022-12-31T09:48:27.845Z,12042.239
2022-12-31T09:49:27.991Z,12083.2
2022-12-31T09:50:28.131Z,12206.08
2022-12-31T09:51:28.283Z,12083.2
2022-12-31T09:52:28.452Z,12625.92
2022-12-31T09:53:28.599Z,13178.88
2022-12-31T09:54:28.762Z,15575.04
2022-12-31T09:55:28.889Z,16384
2022-12-31T09:56:29.053Z,16967.68
2022-12-31T09:57:29.290Z,17070.08
2022-12-31T09:58:29.408Z,16281.6
2022-12-31T09:59:29.519Z,15411.199
2022-12-31T10:00:29.613Z,15400.96
2022-12-31T10:01:29.839Z,15124.479
2022-12-31T10:02:29.961Z,15093.76
2022-12-31T10:03:30.071Z,14295.04
2022-12-31T10:04:30.182Z,14766.08
2022-12-31T10:05:30.322Z,15042.56
2022-12-31T10:06:30.462Z,15390.72
2022-12-31T10:07:30.605Z,12308.479
2022-12-31T10:08:30.707Z,15800.319
2022-12-31T10:09:30.857Z,15851.52
2022-12-31T10:10:31.033Z,15104
2022-12-31T10:11:31.186Z,14704.64
2022-12-31T10:12:31.330Z,13731.84
2022-12-31T10:13:31.479Z,12810.239
2022-12-31T10:14:31.617Z,10449.92
2022-12-31T10:15:31.769Z,10316.8
2022-12-31T10:16:31.963Z,9973.76
2022-12-31T10:17:32.103Z,10833.92
2022-12-31T10:18:32.228Z,11950.08
2022-12-31T10:19:32.379Z,12431.359
2022-12-31T10:20:32.524Z,12472.319
2022-12-31T10:21:32.688Z,12595.2
2022-12-31T10:22:32.841Z,12574.72
2022-12-31T10:23:32.975Z,12636.16
2022-12-31T10:24:33.145Z,12738.56
2022-12-31T10:25:37.831Z,12800
2022-12-31T10:26:33.443Z,12902.399
2022-12-31T10:27:33.592Z,12922.88
2022-12-31T10:28:33.743Z,12933.12
2022-12-31T10:29:33.895Z,12933.12
2022-12-31T10:30:34.100Z,14069.76
2022-12-31T10:31:34.210Z,14161.92
2022-12-31T10:32:34.340Z,13854.72
2022-12-31T10:33:34.511Z,13404.16
2022-12-31T10:34:34.649Z,13240.319
2022-12-31T10:35:34.812Z,12851.2
2022-12-31T10:36:34.948Z,12410.88
2022-12-31T10:37:35.417Z,12298.239
2022-12-31T10:38:35.251Z,12165.12
2022-12-31T10:39:35.384Z,12124.16
2022-12-31T10:40:36.129Z,12093.439
2022-12-31T10:41:35.647Z,12206.08
2022-12-31T10:42:35.760Z,12482.56
2022-12-31T10:43:35.914Z,12544
2022-12-31T10:44:36.096Z,12584.96
2022-12-31T10:45:36.213Z,12830.72
2022-12-31T10:46:36.406Z,13680.64
2022-12-31T10:47:36.488Z,14141.439
2022-12-31T10:48:36.580Z,13445.12
2022-12-31T10:49:36.746Z,13854.72
2022-12-31T10:50:36.866Z,13363.199
2022-12-31T10:51:37.025Z,13731.84
2022-12-31T10:52:41.658Z,13926.399
2022-12-31T10:53:37.331Z,14632.96
2022-12-31T10:54:37.476Z,16578.56
2022-12-31T10:55:37.644Z,18227.2
2022-12-31T10:56:37.791Z,20121.6
2022-12-31T10:57:37.943Z,20449.28
2022-12-31T10:58:38.085Z,15206.399
2022-12-31T10:59:38.243Z,13127.68
2022-12-31T11:00:38.379Z,12462.08
2022-12-31T11:01:38.621Z,13414.399
2022-12-31T11:02:38.869Z,12830.72
2022-12-31T11:03:38.900Z,12195.84
2022-12-31T11:04:39.010Z,11868.16
2022-12-31T11:05:39.147Z,11386.88
2022-12-31T11:06:39.299Z,11325.439
2022-12-31T11:07:39.467Z,11489.279
2022-12-31T11:08:39.603Z,11827.2
2022-12-31T11:09:39.756Z,11950.08
2022-12-31T11:10:39.909Z,12267.52
2022-12-31T11:11:40.048Z,12830.72
2022-12-31T11:12:40.216Z,14540.8
2022-12-31T11:13:40.357Z,14131.199
2022-12-31T11:14:40.501Z,15032.319
2022-12-31T11:15:43.912Z,15831.04
2022-12-31T11:16:40.766Z,16158.72
2022-12-31T11:17:40.916Z,17797.12
2022-12-31T11:18:41.063Z,19271.68
2022-12-31T11:19:41.215Z,18247.68
2022-12-31T11:20:41.378Z,18810.88
2022-12-31T11:21:41.867Z,17561.6
2022-12-31T11:22:41.627Z,16732.16
2022-12-31T11:23:41.764Z,16517.12
2022-12-31T11:24:41.931Z,16742.4
2022-12-31T11:25:42.074Z,18227.2
2022-12-31T11:26:42.219Z,18401.28
2022-12-31T11:27:44.865Z,18472.96
2022-12-31T11:28:42.523Z,17510.4
2022-12-31T11:29:42.686Z,16732.16
2022-12-31T11:30:42.851Z,18913.28
2022-12-31T11:31:42.975Z,20449.28
2022-12-31T11:32:43.090Z,21872.64
2022-12-31T11:33:48.511Z,18944
2022-12-31T11:34:43.380Z,18104.32
2022-12-31T11:35:43.546Z,16261.12
2022-12-31T11:36:43.699Z,16332.8
2022-12-31T11:37:43.856Z,16035.84
2022-12-31T11:38:43.948Z,15482.88
2022-12-31T11:39:44.097Z,15052.8
2022-12-31T11:40:44.258Z,14120.96
2022-12-31T11:41:44.406Z,13568
2022-12-31T11:42:44.541Z,13004.8
2022-12-31T11:43:44.720Z,12738.56
2022-12-31T11:44:44.856Z,12769.279
2022-12-31T11:45:50.321Z,12789.76
2022-12-31T11:46:45.134Z,12206.08
2022-12-31T11:48:20.428Z,11612.16
2022-12-31T11:48:45.407Z,11714.56
2022-12-31T11:49:45.566Z,11673.6
2022-12-31T11:50:45.711Z,12001.279
2022-12-31T11:51:50.299Z,12062.72
2022-12-31T11:52:45.963Z,12083.2
2022-12-31T11:53:46.122Z,12247.04
2022-12-31T11:54:46.275Z,12062.72
2022-12-31T11:55:46.418Z,12011.52
2022-12-31T11:56:46.569Z,11909.12
2022-12-31T11:57:46.735Z,11663.359
2022-12-31T11:58:46.861Z,12646.399
2022-12-31T11:59:47.050Z,15769.6
2022-12-31T12:00:47.143Z,15851.52
2022-12-31T12:01:47.378Z,18237.44
2022-12-31T12:02:47.507Z,19578.88
2022-12-31T12:03:47.657Z,22405.12
2022-12-31T12:04:47.749Z,25886.72
2022-12-31T12:05:47.921Z,30945.28
2022-12-31T12:06:48.034Z,32706.56
2022-12-31T12:07:48.186Z,27791.36
2022-12-31T12:08:48.293Z,30720
2022-12-31T12:09:48.454Z,31580.16
2022-12-31T12:10:48.560Z,29020.16
2022-12-31T12:11:48.693Z,26357.76
2022-12-31T12:12:48.840Z,21073.92
2022-12-31T12:13:48.985Z,20152.32
2022-12-31T12:14:49.145Z,17571.84
2022-12-31T12:15:49.339Z,17070.08
2022-12-31T12:16:49.464Z,17090.56
2022-12-31T12:17:49.663Z,20019.2
2022-12-31T12:18:49.880Z,18483.2
2022-12-31T12:19:50.013Z,16404.48
2022-12-31T12:20:50.185Z,15216.64
2022-12-31T12:21:50.309Z,13987.84
2022-12-31T12:22:50.460Z,13752.319
2022-12-31T12:23:50.627Z,13598.72
2022-12-31T12:24:50.772Z,13762.56
2022-12-31T12:25:50.917Z,13813.76
2022-12-31T12:26:51.064Z,13936.64
2022-12-31T12:27:51.173Z,13864.96
2022-12-31T12:28:51.327Z,13629.439
2022-12-31T12:29:51.491Z,13445.12
2022-12-31T12:30:51.623Z,14141.439
2022-12-31T12:31:51.838Z,13281.279
2022-12-31T12:32:51.916Z,12871.68
2022-12-31T12:33:52.088Z,12871.68
2022-12-31T12:34:52.259Z,13096.96
2022-12-31T12:35:52.344Z,13230.08
2022-12-31T12:36:52.424Z,13199.359
2022-12-31T12:37:52.591Z,13363.199
2022-12-31T12:38:52.738Z,13271.04
2022-12-31T12:39:52.877Z,13004.8
2022-12-31T12:40:53.026Z,12728.319
2022-12-31T12:41:53.171Z,12195.84